sensor_id;sensor_type;location;lat;lon;timestamp;P1;P2;P0
34176;PMS7003;20450;49.074;9.158;2023-01-16T00:01:10;1.00;1.00;0.00
34176;PMS7003;20450;49.074;9.158;2023-01-16T00:03:39;2.25;1.00;1.00
34176;PMS7003;20450;49.074;9.158;2023-01-16T00:06:06;1.00;1.00;1.00
34176;PMS7003;20450;49.074;9.158;2023-01-16T00:08:33;1.00;1.00;0.25
34176;PMS7003;20450;49.074;9.158;2023-01-16T00:10:59;1.50;1.50;1.25
34176;PMS7003;20450;49.074;9.158;2023-01-16T00:13:26;1.75;1.75;1.00
34176;PMS7003;20450;49.074;9.158;2023-01-16T00:15:53;0.75;0.75;0.50
34176;PMS7003;20450;49.074;9.158;2023-01-16T00:18:20;1.25;1.00;0.00
34176;PMS7003;20450;49.074;9.158;2023-01-16T00:20:48;0.50;0.50;0.50
34176;PMS7003;20450;49.074;9.158;2023-01-16T00:23:15;0.00;0.00;0.00
34176;PMS7003;20450;49.074;9.158;2023-01-16T00:25:46;1.00;1.00;0.00
34176;PMS7003;20450;49.074;9.158;2023-01-16T00:28:18;0.25;0.25;0.00
34176;PMS7003;20450;49.074;9.158;2023-01-16T00:30:45;0.00;0.00;0.00
34176;PMS7003;20450;49.074;9.158;2023-01-16T00:33:12;0.50;0.00;0.00
34176;PMS7003;20450;49.074;9.158;2023-01-16T00:35:39;1.00;1.00;0.75
34176;PMS7003;20450;49.074;9.158;2023-01-16T00:38:07;0.00;0.00;0.00
34176;PMS7003;20450;49.074;9.158;2023-01-16T00:40:34;1.00;1.00;0.75
34176;PMS7003;20450;49.074;9.158;2023-01-16T00:43:16;0.00;0.00;0.00
34176;PMS7003;20450;49.074;9.158;2023-01-16T00:45:42;0.50;0.50;0.00
34176;PMS7003;20450;49.074;9.158;2023-01-16T00:48:09;1.25;1.25;1.00
34176;PMS7003;20450;49.074;9.158;2023-01-16T00:50:36;0.00;0.00;0.00
34176;PMS7003;20450;49.074;9.158;2023-01-16T00:53:04;3.00;1.00;1.00
34176;PMS7003;20450;49.074;9.158;2023-01-16T00:55:33;2.00;2.00;0.50
34176;PMS7003;20450;49.074;9.158;2023-01-16T00:58:01;0.00;0.00;0.00
34176;PMS7003;20450;49.074;9.158;2023-01-16T01:00:46;0.00;0.00;0.00
34176;PMS7003;20450;49.074;9.158;2023-01-16T01:03:32;0.25;0.25;0.00
34176;PMS7003;20450;49.074;9.158;2023-01-16T01:05:59;0.25;0.25;0.00
34176;PMS7003;20450;49.074;9.158;2023-01-16T01:08:30;0.00;0.00;0.00
34176;PMS7003;20450;49.074;9.158;2023-01-16T01:11:01;1.75;1.00;0.50
34176;PMS7003;20450;49.074;9.158;2023-01-16T01:13:32;0.25;0.25;0.00
34176;PMS7003;20450;49.074;9.158;2023-01-16T01:15:59;0.00;0.00;0.00
34176;PMS7003;20450;49.074;9.158;2023-01-16T01:18:26;1.25;1.00;0.00
34176;PMS7003;20450;49.074;9.158;2023-01-16T01:20:53;0.25;0.25;0.00
34176;PMS7003;20450;49.074;9.158;2023-01-16T01:23:20;1.50;1.50;1.00
34176;PMS7003;20450;49.074;9.158;2023-01-16T01:25:47;0.25;0.25;0.25
34176;PMS7003;20450;49.074;9.158;2023-01-16T01:28:15;3.75;0.25;0.00
34176;PMS7003;20450;49.074;9.158;2023-01-16T01:30:42;2.00;2.00;0.00
34176;PMS7003;20450;49.074;9.158;2023-01-16T01:33:09;1.00;1.00;0.00
34176;PMS7003;20450;49.074;9.158;2023-01-16T01:35:36;1.00;0.00;0.00
34176;PMS7003;20450;49.074;9.158;2023-01-16T01:38:04;0.00;0.00;0.00
34176;PMS7003;20450;49.074;9.158;2023-01-16T01:40:31;0.00;0.00;0.00
34176;PMS7003;20450;49.074;9.158;2023-01-16T01:42:59;2.00;1.50;1.00
34176;PMS7003;20450;49.074;9.158;2023-01-16T01:45:28;1.00;1.00;0.50
34176;PMS7003;20450;49.074;9.158;2023-01-16T01:47:57;1.00;0.00;0.00
34176;PMS7003;20450;49.074;9.158;2023-01-16T01:50:40;0.00;0.00;0.00
34176;PMS7003;20450;49.074;9.158;2023-01-16T01:53:13;0.00;0.00;0.00
34176;PMS7003;20450;49.074;9.158;2023-01-16T01:55:47;0.50;0.50;0.25
34176;PMS7003;20450;49.074;9.158;2023-01-16T01:58:16;0.00;0.00;0.00
34176;PMS7003;20450;49.074;9.158;2023-01-16T02:00:53;0.75;0.50;0.00
34176;PMS7003;20450;49.074;9.158;2023-01-16T02:03:27;0.75;0.75;0.00
34176;PMS7003;20450;49.074;9.158;2023-01-16T02:05:59;0.00;0.00;0.00
34176;PMS7003;20450;49.074;9.158;2023-01-16T02:08:32;0.00;0.00;0.00
34176;PMS7003;20450;49.074;9.158;2023-01-16T02:11:02;0.75;0.75;0.00
34176;PMS7003;20450;49.074;9.158;2023-01-16T02:13:36;1.25;0.00;0.00
34176;PMS7003;20450;49.074;9.158;2023-01-16T02:16:06;0.00;0.00;0.00
34176;PMS7003;20450;49.074;9.158;2023-01-16T02:18:33;0.00;0.00;0.00
34176;PMS7003;20450;49.074;9.158;2023-01-16T02:21:01;0.00;0.00;0.00
34176;PMS7003;20450;49.074;9.158;2023-01-16T02:24:10;0.00;0.00;0.00
34176;PMS7003;20450;49.074;9.158;2023-01-16T02:27:23;0.50;0.50;0.00
34176;PMS7003;20450;49.074;9.158;2023-01-16T02:30:23;0.75;0.00;0.00
34176;PMS7003;20450;49.074;9.158;2023-01-16T02:33:40;0.00;0.00;0.00
34176;PMS7003;20450;49.074;9.158;2023-01-16T02:36:27;0.00;0.00;0.00
34176;PMS7003;20450;49.074;9.158;2023-01-16T02:39:09;0.00;0.00;0.00
34176;PMS7003;20450;49.074;9.158;2023-01-16T02:41:49;0.00;0.00;0.00
34176;PMS7003;20450;49.074;9.158;2023-01-16T02:44:32;0.00;0.00;0.00
34176;PMS7003;20450;49.074;9.158;2023-01-16T02:47:13;0.75;0.75;0.00
34176;PMS7003;20450;49.074;9.158;2023-01-16T02:49:49;0.00;0.00;0.00
34176;PMS7003;20450;49.074;9.158;2023-01-16T02:52:30;1.00;1.00;1.00
34176;PMS7003;20450;49.074;9.158;2023-01-16T02:55:06;0.00;0.00;0.00
34176;PMS7003;20450;49.074;9.158;2023-01-16T02:57:45;0.00;0.00;0.00
34176;PMS7003;20450;49.074;9.158;2023-01-16T03:00:21;0.00;0.00;0.00
34176;PMS7003;20450;49.074;9.158;2023-01-16T03:02:49;0.00;0.00;0.00
34176;PMS7003;20450;49.074;9.158;2023-01-16T03:05:16;3.00;0.00;0.00
34176;PMS7003;20450;49.074;9.158;2023-01-16T03:13:49;0.25;0.25;0.00
34176;PMS7003;20450;49.074;9.158;2023-01-16T03:16:45;0.00;0.00;0.00
34176;PMS7003;20450;49.074;9.158;2023-01-16T03:19:43;0.00;0.00;0.00
34176;PMS7003;20450;49.074;9.158;2023-01-16T03:22:30;1.00;0.00;0.00
34176;PMS7003;20450;49.074;9.158;2023-01-16T03:25:11;0.00;0.00;0.00
34176;PMS7003;20450;49.074;9.158;2023-01-16T03:27:54;1.00;0.00;0.00
34176;PMS7003;20450;49.074;9.158;2023-01-16T03:30:37;0.00;0.00;0.00
34176;PMS7003;20450;49.074;9.158;2023-01-16T03:33:19;0.50;0.50;0.00
34176;PMS7003;20450;49.074;9.158;2023-01-16T03:35:59;0.50;0.00;0.00
34176;PMS7003;20450;49.074;9.158;2023-01-16T03:38:35;0.00;0.00;0.00
34176;PMS7003;20450;49.074;9.158;2023-01-16T03:41:06;0.75;0.75;0.00
34176;PMS7003;20450;49.074;9.158;2023-01-16T03:43:39;0.00;0.00;0.00
34176;PMS7003;20450;49.074;9.158;2023-01-16T03:46:09;0.00;0.00;0.00
34176;PMS7003;20450;49.074;9.158;2023-01-16T03:48:44;0.00;0.00;0.00
34176;PMS7003;20450;49.074;9.158;2023-01-16T03:51:19;0.00;0.00;0.00
34176;PMS7003;20450;49.074;9.158;2023-01-16T03:53:53;0.00;0.00;0.00
34176;PMS7003;20450;49.074;9.158;2023-01-16T03:56:43;0.75;0.75;0.75
34176;PMS7003;20450;49.074;9.158;2023-01-16T03:59:16;0.00;0.00;0.00
34176;PMS7003;20450;49.074;9.158;2023-01-16T04:01:45;0.00;0.00;0.00
34176;PMS7003;20450;49.074;9.158;2023-01-16T04:04:25;0.00;0.00;0.00
34176;PMS7003;20450;49.074;9.158;2023-01-16T04:07:14;1.25;1.25;0.50
34176;PMS7003;20450;49.074;9.158;2023-01-16T04:09:54;1.00;1.00;0.00
34176;PMS7003;20450;49.074;9.158;2023-01-16T04:12:27;1.00;1.00;0.00
34176;PMS7003;20450;49.074;9.158;2023-01-16T04:15:01;0.00;0.00;0.00
34176;PMS7003;20450;49.074;9.158;2023-01-16T04:17:33;2.00;2.00;1.00
34176;PMS7003;20450;49.074;9.158;2023-01-16T04:20:02;2.25;1.00;0.50
34176;PMS7003;20450;49.074;9.158;2023-01-16T04:22:32;1.25;1.25;1.00
34176;PMS7003;20450;49.074;9.158;2023-01-16T04:25:00;0.00;0.00;0.00
34176;PMS7003;20450;49.074;9.158;2023-01-16T04:27:33;0.75;0.75;0.75
34176;PMS7003;20450;49.074;9.158;2023-01-16T04:30:04;0.00;0.00;0.00
34176;PMS7003;20450;49.074;9.158;2023-01-16T04:32:32;0.75;0.75;0.00
34176;PMS7003;20450;49.074;9.158;2023-01-16T04:35:10;0.00;0.00;0.00
34176;PMS7003;20450;49.074;9.158;2023-01-16T04:37:39;1.50;0.25;0.00
34176;PMS7003;20450;49.074;9.158;2023-01-16T04:40:07;0.00;0.00;0.00
34176;PMS7003;20450;49.074;9.158;2023-01-16T04:42:36;0.00;0.00;0.00
34176;PMS7003;20450;49.074;9.158;2023-01-16T04:45:03;1.00;1.00;0.25
34176;PMS7003;20450;49.074;9.158;2023-01-16T04:47:32;0.00;0.00;0.00
34176;PMS7003;20450;49.074;9.158;2023-01-16T04:49:58;0.50;0.00;0.00
34176;PMS7003;20450;49.074;9.158;2023-01-16T04:52:25;0.00;0.00;0.00
34176;PMS7003;20450;49.074;9.158;2023-01-16T04:54:54;0.00;0.00;0.00
34176;PMS7003;20450;49.074;9.158;2023-01-16T04:57:21;3.25;2.25;1.00
34176;PMS7003;20450;49.074;9.158;2023-01-16T04:59:48;0.50;0.50;0.50
34176;PMS7003;20450;49.074;9.158;2023-01-16T05:02:15;0.75;0.75;0.50
34176;PMS7003;20450;49.074;9.158;2023-01-16T05:04:42;0.00;0.00;0.00
34176;PMS7003;20450;49.074;9.158;2023-01-16T05:07:09;0.00;0.00;0.00
34176;PMS7003;20450;49.074;9.158;2023-01-16T05:09:36;0.00;0.00;0.00
34176;PMS7003;20450;49.074;9.158;2023-01-16T05:12:04;0.00;0.00;0.00
34176;PMS7003;20450;49.074;9.158;2023-01-16T05:14:34;0.00;0.00;0.00
34176;PMS7003;20450;49.074;9.158;2023-01-16T05:17:01;0.00;0.00;0.00
34176;PMS7003;20450;49.074;9.158;2023-01-16T05:19:27;0.75;0.75;0.00
34176;PMS7003;20450;49.074;9.158;2023-01-16T05:21:54;1.00;1.00;1.00
34176;PMS7003;20450;49.074;9.158;2023-01-16T05:24:21;0.00;0.00;0.00
34176;PMS7003;20450;49.074;9.158;2023-01-16T05:26:49;0.25;0.25;0.00
34176;PMS7003;20450;49.074;9.158;2023-01-16T05:29:17;1.00;1.00;1.00
34176;PMS7003;20450;49.074;9.158;2023-01-16T05:31:44;0.00;0.00;0.00
34176;PMS7003;20450;49.074;9.158;2023-01-16T05:34:11;0.00;0.00;0.00
34176;PMS7003;20450;49.074;9.158;2023-01-16T05:36:38;0.00;0.00;0.00
34176;PMS7003;20450;49.074;9.158;2023-01-16T05:39:05;1.75;0.75;0.00
34176;PMS7003;20450;49.074;9.158;2023-01-16T05:41:32;0.00;0.00;0.00
34176;PMS7003;20450;49.074;9.158;2023-01-16T05:43:59;0.25;0.25;0.25
34176;PMS7003;20450;49.074;9.158;2023-01-16T05:46:27;0.00;0.00;0.00
34176;PMS7003;20450;49.074;9.158;2023-01-16T05:48:54;0.75;0.75;0.00
34176;PMS7003;20450;49.074;9.158;2023-01-16T05:51:21;1.50;1.50;1.00
34176;PMS7003;20450;49.074;9.158;2023-01-16T05:53:49;1.00;0.00;0.00
34176;PMS7003;20450;49.074;9.158;2023-01-16T05:56:16;1.75;1.75;1.00
34176;PMS7003;20450;49.074;9.158;2023-01-16T05:58:49;1.00;1.00;1.00
34176;PMS7003;20450;49.074;9.158;2023-01-16T06:01:16;0.00;0.00;0.00
34176;PMS7003;20450;49.074;9.158;2023-01-16T06:03:44;1.00;1.00;0.50
34176;PMS7003;20450;49.074;9.158;2023-01-16T06:06:11;0.00;0.00;0.00
34176;PMS7003;20450;49.074;9.158;2023-01-16T06:08:38;1.00;0.00;0.00
34176;PMS7003;20450;49.074;9.158;2023-01-16T06:11:05;0.00;0.00;0.00
34176;PMS7003;20450;49.074;9.158;2023-01-16T06:13:32;0.25;0.25;0.00
34176;PMS7003;20450;49.074;9.158;2023-01-16T06:15:59;1.75;1.75;1.25
34176;PMS7003;20450;49.074;9.158;2023-01-16T06:18:26;2.00;2.00;1.50
34176;PMS7003;20450;49.074;9.158;2023-01-16T06:20:54;1.75;1.75;1.00
34176;PMS7003;20450;49.074;9.158;2023-01-16T06:23:22;1.00;1.00;0.00
34176;PMS7003;20450;49.074;9.158;2023-01-16T06:25:49;0.00;0.00;0.00
34176;PMS7003;20450;49.074;9.158;2023-01-16T06:28:17;0.00;0.00;0.00
34176;PMS7003;20450;49.074;9.158;2023-01-16T06:30:44;0.00;0.00;0.00
34176;PMS7003;20450;49.074;9.158;2023-01-16T06:33:11;1.00;1.00;0.00
34176;PMS7003;20450;49.074;9.158;2023-01-16T06:35:37;2.00;0.75;0.50
34176;PMS7003;20450;49.074;9.158;2023-01-16T06:38:06;1.00;1.00;1.00
34176;PMS7003;20450;49.074;9.158;2023-01-16T06:40:34;1.25;1.25;1.00
34176;PMS7003;20450;49.074;9.158;2023-01-16T06:43:01;1.00;1.00;1.00
34176;PMS7003;20450;49.074;9.158;2023-01-16T06:45:27;1.00;1.00;0.75
34176;PMS7003;20450;49.074;9.158;2023-01-16T06:47:54;2.00;2.00;2.00
34176;PMS7003;20450;49.074;9.158;2023-01-16T06:50:24;0.75;0.75;0.00
34176;PMS7003;20450;49.074;9.158;2023-01-16T06:52:54;0.00;0.00;0.00
34176;PMS7003;20450;49.074;9.158;2023-01-16T06:55:23;0.00;0.00;0.00
34176;PMS7003;20450;49.074;9.158;2023-01-16T06:57:50;2.25;2.25;2.00
34176;PMS7003;20450;49.074;9.158;2023-01-16T07:00:17;0.00;0.00;0.00
34176;PMS7003;20450;49.074;9.158;2023-01-16T07:02:48;1.00;1.00;0.75
34176;PMS7003;20450;49.074;9.158;2023-01-16T07:05:18;1.00;1.00;1.00
34176;PMS7003;20450;49.074;9.158;2023-01-16T07:07:45;3.00;2.00;1.50
34176;PMS7003;20450;49.074;9.158;2023-01-16T07:10:12;0.75;0.75;0.00
34176;PMS7003;20450;49.074;9.158;2023-01-16T07:12:40;0.00;0.00;0.00
34176;PMS7003;20450;49.074;9.158;2023-01-16T07:15:08;0.00;0.00;0.00
34176;PMS7003;20450;49.074;9.158;2023-01-16T07:17:37;0.00;0.00;0.00
34176;PMS7003;20450;49.074;9.158;2023-01-16T07:20:04;0.00;0.00;0.00
34176;PMS7003;20450;49.074;9.158;2023-01-16T07:22:33;0.00;0.00;0.00
34176;PMS7003;20450;49.074;9.158;2023-01-16T07:25:01;0.00;0.00;0.00
34176;PMS7003;20450;49.074;9.158;2023-01-16T07:27:31;0.00;0.00;0.00
34176;PMS7003;20450;49.074;9.158;2023-01-16T07:30:00;0.00;0.00;0.00
34176;PMS7003;20450;49.074;9.158;2023-01-16T07:32:27;0.00;0.00;0.00
34176;PMS7003;20450;49.074;9.158;2023-01-16T07:34:54;1.00;0.00;0.00
34176;PMS7003;20450;49.074;9.158;2023-01-16T07:37:21;0.00;0.00;0.00
34176;PMS7003;20450;49.074;9.158;2023-01-16T07:39:48;1.00;1.00;0.00
34176;PMS7003;20450;49.074;9.158;2023-01-16T07:42:15;0.00;0.00;0.00
34176;PMS7003;20450;49.074;9.158;2023-01-16T07:44:42;5.00;3.75;3.00
34176;PMS7003;20450;49.074;9.158;2023-01-16T07:47:10;0.50;0.50;0.00
34176;PMS7003;20450;49.074;9.158;2023-01-16T07:49:37;0.00;0.00;0.00
34176;PMS7003;20450;49.074;9.158;2023-01-16T07:52:04;1.00;1.00;1.00
34176;PMS7003;20450;49.074;9.158;2023-01-16T07:54:31;1.00;1.00;1.00
34176;PMS7003;20450;49.074;9.158;2023-01-16T07:56:58;0.75;0.75;0.25
34176;PMS7003;20450;49.074;9.158;2023-01-16T07:59:25;0.00;0.00;0.00
34176;PMS7003;20450;49.074;9.158;2023-01-16T08:01:51;0.50;0.50;0.50
34176;PMS7003;20450;49.074;9.158;2023-01-16T08:04:20;0.75;0.75;0.00
34176;PMS7003;20450;49.074;9.158;2023-01-16T08:06:46;0.00;0.00;0.00
34176;PMS7003;20450;49.074;9.158;2023-01-16T08:09:15;1.00;0.00;0.00
34176;PMS7003;20450;49.074;9.158;2023-01-16T08:11:42;2.50;2.50;1.50
34176;PMS7003;20450;49.074;9.158;2023-01-16T08:14:09;0.00;0.00;0.00
34176;PMS7003;20450;49.074;9.158;2023-01-16T08:16:35;0.00;0.00;0.00
34176;PMS7003;20450;49.074;9.158;2023-01-16T08:19:02;0.00;0.00;0.00
34176;PMS7003;20450;49.074;9.158;2023-01-16T08:21:31;0.75;0.75;0.75
34176;PMS7003;20450;49.074;9.158;2023-01-16T08:23:57;0.50;0.50;0.00
34176;PMS7003;20450;49.074;9.158;2023-01-16T08:26:25;0.75;0.75;0.00
34176;PMS7003;20450;49.074;9.158;2023-01-16T08:28:51;1.75;0.75;0.00
34176;PMS7003;20450;49.074;9.158;2023-01-16T08:31:18;0.00;0.00;0.00
34176;PMS7003;20450;49.074;9.158;2023-01-16T08:33:45;0.75;0.75;0.75
34176;PMS7003;20450;49.074;9.158;2023-01-16T08:36:22;1.75;1.00;1.00
34176;PMS7003;20450;49.074;9.158;2023-01-16T08:38:51;0.00;0.00;0.00
34176;PMS7003;20450;49.074;9.158;2023-01-16T08:41:18;1.50;1.50;1.25
34176;PMS7003;20450;49.074;9.158;2023-01-16T08:43:45;7.25;7.25;5.00
34176;PMS7003;20450;49.074;9.158;2023-01-16T08:46:14;7.00;5.50;4.00
34176;PMS7003;20450;49.074;9.158;2023-01-16T08:48:46;1.00;1.00;1.00
34176;PMS7003;20450;49.074;9.158;2023-01-16T08:51:13;1.00;1.00;0.75
34176;PMS7003;20450;49.074;9.158;2023-01-16T08:53:43;1.00;1.00;1.00
34176;PMS7003;20450;49.074;9.158;2023-01-16T08:56:12;1.00;1.00;1.00
34176;PMS7003;20450;49.074;9.158;2023-01-16T08:58:39;2.00;1.00;1.00
34176;PMS7003;20450;49.074;9.158;2023-01-16T09:01:06;1.00;1.00;0.25
34176;PMS7003;20450;49.074;9.158;2023-01-16T09:03:33;0.75;0.75;0.50
34176;PMS7003;20450;49.074;9.158;2023-01-16T09:06:00;1.00;1.00;0.00
34176;PMS7003;20450;49.074;9.158;2023-01-16T09:08:29;0.00;0.00;0.00
34176;PMS7003;20450;49.074;9.158;2023-01-16T09:10:56;0.00;0.00;0.00
34176;PMS7003;20450;49.074;9.158;2023-01-16T09:13:24;0.00;0.00;0.00
34176;PMS7003;20450;49.074;9.158;2023-01-16T09:15:51;0.00;0.00;0.00
34176;PMS7003;20450;49.074;9.158;2023-01-16T09:18:18;0.00;0.00;0.00
34176;PMS7003;20450;49.074;9.158;2023-01-16T09:20:45;1.75;1.75;1.50
34176;PMS7003;20450;49.074;9.158;2023-01-16T09:23:12;3.00;2.00;2.00
34176;PMS7003;20450;49.074;9.158;2023-01-16T09:25:39;1.50;1.50;1.00
34176;PMS7003;20450;49.074;9.158;2023-01-16T09:28:06;0.75;0.75;0.75
34176;PMS7003;20450;49.074;9.158;2023-01-16T09:30:35;1.50;1.00;0.00
34176;PMS7003;20450;49.074;9.158;2023-01-16T09:33:02;0.00;0.00;0.00
34176;PMS7003;20450;49.074;9.158;2023-01-16T09:35:29;0.00;0.00;0.00
34176;PMS7003;20450;49.074;9.158;2023-01-16T09:37:56;1.00;1.00;0.00
34176;PMS7003;20450;49.074;9.158;2023-01-16T09:40:23;1.25;0.00;0.00
34176;PMS7003;20450;49.074;9.158;2023-01-16T09:42:56;0.50;0.50;0.00
34176;PMS7003;20450;49.074;9.158;2023-01-16T09:45:43;1.00;1.00;0.00
34176;PMS7003;20450;49.074;9.158;2023-01-16T09:48:25;1.50;1.00;1.00
34176;PMS7003;20450;49.074;9.158;2023-01-16T09:51:15;1.00;0.00;0.00
34176;PMS7003;20450;49.074;9.158;2023-01-16T09:53:54;1.00;1.00;0.00
34176;PMS7003;20450;49.074;9.158;2023-01-16T09:56:27;0.00;0.00;0.00
34176;PMS7003;20450;49.074;9.158;2023-01-16T09:59:12;0.75;0.75;0.75
34176;PMS7003;20450;49.074;9.158;2023-01-16T10:10:15;0.25;0.00;0.00
34176;PMS7003;20450;49.074;9.158;2023-01-16T10:13:48;2.00;2.00;0.00
34176;PMS7003;20450;49.074;9.158;2023-01-16T10:16:34;0.00;0.00;0.00
34176;PMS7003;20450;49.074;9.158;2023-01-16T10:19:29;0.00;0.00;0.00
34176;PMS7003;20450;49.074;9.158;2023-01-16T10:22:16;0.50;0.50;0.25
34176;PMS7003;20450;49.074;9.158;2023-01-16T10:25:06;0.00;0.00;0.00
34176;PMS7003;20450;49.074;9.158;2023-01-16T10:27:50;0.00;0.00;0.00
34176;PMS7003;20450;49.074;9.158;2023-01-16T10:30:38;1.00;0.00;0.00
34176;PMS7003;20450;49.074;9.158;2023-01-16T10:33:15;0.00;0.00;0.00
34176;PMS7003;20450;49.074;9.158;2023-01-16T10:35:55;0.75;0.75;0.00
34176;PMS7003;20450;49.074;9.158;2023-01-16T10:38:31;0.00;0.00;0.00
34176;PMS7003;20450;49.074;9.158;2023-01-16T10:41:08;0.00;0.00;0.00
34176;PMS7003;20450;49.074;9.158;2023-01-16T10:43:45;0.00;0.00;0.00
34176;PMS7003;20450;49.074;9.158;2023-01-16T10:46:13;0.50;0.50;0.50
34176;PMS7003;20450;49.074;9.158;2023-01-16T10:48:46;2.50;2.50;2.00
34176;PMS7003;20450;49.074;9.158;2023-01-16T10:51:13;4.50;4.50;4.00
34176;PMS7003;20450;49.074;9.158;2023-01-16T10:53:40;1.50;1.50;1.00
34176;PMS7003;20450;49.074;9.158;2023-01-16T10:56:09;0.00;0.00;0.00
34176;PMS7003;20450;49.074;9.158;2023-01-16T10:58:37;0.00;0.00;0.00
34176;PMS7003;20450;49.074;9.158;2023-01-16T11:01:06;0.00;0.00;0.00
34176;PMS7003;20450;49.074;9.158;2023-01-16T11:03:40;0.00;0.00;0.00
34176;PMS7003;20450;49.074;9.158;2023-01-16T11:06:11;0.00;0.00;0.00
34176;PMS7003;20450;49.074;9.158;2023-01-16T11:08:43;0.00;0.00;0.00
34176;PMS7003;20450;49.074;9.158;2023-01-16T11:11:15;0.00;0.00;0.00
34176;PMS7003;20450;49.074;9.158;2023-01-16T11:13:42;1.00;1.00;0.00
34176;PMS7003;20450;49.074;9.158;2023-01-16T11:16:17;0.00;0.00;0.00
34176;PMS7003;20450;49.074;9.158;2023-01-16T11:18:47;0.00;0.00;0.00
34176;PMS7003;20450;49.074;9.158;2023-01-16T11:21:15;0.00;0.00;0.00
34176;PMS7003;20450;49.074;9.158;2023-01-16T11:23:52;1.00;0.00;0.00
34176;PMS7003;20450;49.074;9.158;2023-01-16T11:26:26;0.00;0.00;0.00
34176;PMS7003;20450;49.074;9.158;2023-01-16T11:28:56;0.00;0.00;0.00
34176;PMS7003;20450;49.074;9.158;2023-01-16T11:31:25;0.00;0.00;0.00
34176;PMS7003;20450;49.074;9.158;2023-01-16T11:33:55;0.00;0.00;0.00
34176;PMS7003;20450;49.074;9.158;2023-01-16T11:36:27;0.00;0.00;0.00
34176;PMS7003;20450;49.074;9.158;2023-01-16T11:39:01;0.00;0.00;0.00
34176;PMS7003;20450;49.074;9.158;2023-01-16T11:41:34;0.00;0.00;0.00
34176;PMS7003;20450;49.074;9.158;2023-01-16T11:44:15;0.00;0.00;0.00
34176;PMS7003;20450;49.074;9.158;2023-01-16T11:46:46;0.00;0.00;0.00
34176;PMS7003;20450;49.074;9.158;2023-01-16T11:49:24;0.00;0.00;0.00
34176;PMS7003;20450;49.074;9.158;2023-01-16T11:51:58;0.00;0.00;0.00
34176;PMS7003;20450;49.074;9.158;2023-01-16T11:54:27;0.00;0.00;0.00
34176;PMS7003;20450;49.074;9.158;2023-01-16T11:57:02;0.00;0.00;0.00
34176;PMS7003;20450;49.074;9.158;2023-01-16T11:59:58;0.00;0.00;0.00
34176;PMS7003;20450;49.074;9.158;2023-01-16T12:03:14;0.00;0.00;0.00
34176;PMS7003;20450;49.074;9.158;2023-01-16T12:06:16;0.00;0.00;0.00
34176;PMS7003;20450;49.074;9.158;2023-01-16T12:09:06;0.00;0.00;0.00
34176;PMS7003;20450;49.074;9.158;2023-01-16T12:12:18;0.00;0.00;0.00
34176;PMS7003;20450;49.074;9.158;2023-01-16T12:15:01;0.00;0.00;0.00
34176;PMS7003;20450;49.074;9.158;2023-01-16T12:17:36;0.00;0.00;0.00
34176;PMS7003;20450;49.074;9.158;2023-01-16T12:20:30;0.00;0.00;0.00
34176;PMS7003;20450;49.074;9.158;2023-01-16T12:23:18;0.00;0.00;0.00
34176;PMS7003;20450;49.074;9.158;2023-01-16T12:26:05;0.00;0.00;0.00
34176;PMS7003;20450;49.074;9.158;2023-01-16T12:28:50;0.00;0.00;0.00
34176;PMS7003;20450;49.074;9.158;2023-01-16T12:31:42;2.75;2.00;0.00
34176;PMS7003;20450;49.074;9.158;2023-01-16T12:34:32;0.00;0.00;0.00
34176;PMS7003;20450;49.074;9.158;2023-01-16T12:37:22;0.00;0.00;0.00
34176;PMS7003;20450;49.074;9.158;2023-01-16T12:42:57;0.00;0.00;0.00
34176;PMS7003;20450;49.074;9.158;2023-01-16T12:45:44;0.00;0.00;0.00
34176;PMS7003;20450;49.074;9.158;2023-01-16T12:48:23;0.00;0.00;0.00
34176;PMS7003;20450;49.074;9.158;2023-01-16T12:51:26;0.00;0.00;0.00
34176;PMS7003;20450;49.074;9.158;2023-01-16T12:57:16;0.50;0.50;0.50
34176;PMS7003;20450;49.074;9.158;2023-01-16T13:00:00;0.75;0.75;0.75
34176;PMS7003;20450;49.074;9.158;2023-01-16T13:02:37;2.50;2.50;2.50
34176;PMS7003;20450;49.074;9.158;2023-01-16T13:05:12;4.75;4.75;4.75
34176;PMS7003;20450;49.074;9.158;2023-01-16T13:07:47;5.25;5.25;5.25
34176;PMS7003;20450;49.074;9.158;2023-01-16T13:10:22;3.25;3.25;3.25
34176;PMS7003;20450;49.074;9.158;2023-01-16T13:12:55;5.25;5.25;5.25
34176;PMS7003;20450;49.074;9.158;2023-01-16T13:15:27;2.25;2.25;2.25
34176;PMS7003;20450;49.074;9.158;2023-01-16T13:18:03;2.00;2.00;2.00
34176;PMS7003;20450;49.074;9.158;2023-01-16T13:20:38;3.25;3.25;3.25
34176;PMS7003;20450;49.074;9.158;2023-01-16T13:23:10;1.50;1.50;1.50
34176;PMS7003;20450;49.074;9.158;2023-01-16T13:25:46;1.00;1.00;1.00
34176;PMS7003;20450;49.074;9.158;2023-01-16T13:28:22;0.75;0.75;0.75
34176;PMS7003;20450;49.074;9.158;2023-01-16T13:31:04;3.00;1.25;1.25
34176;PMS7003;20450;49.074;9.158;2023-01-16T13:33:44;1.25;1.25;1.25
34176;PMS7003;20450;49.074;9.158;2023-01-16T13:36:23;0.25;0.25;0.25
34176;PMS7003;20450;49.074;9.158;2023-01-16T13:39:28;0.25;0.25;0.00
34176;PMS7003;20450;49.074;9.158;2023-01-16T13:42:16;0.00;0.00;0.00
34176;PMS7003;20450;49.074;9.158;2023-01-16T13:44:48;0.00;0.00;0.00
34176;PMS7003;20450;49.074;9.158;2023-01-16T13:47:23;0.00;0.00;0.00
34176;PMS7003;20450;49.074;9.158;2023-01-16T13:50:00;0.00;0.00;0.00
34176;PMS7003;20450;49.074;9.158;2023-01-16T13:52:34;0.50;0.00;0.00
34176;PMS7003;20450;49.074;9.158;2023-01-16T13:55:01;0.00;0.00;0.00
34176;PMS7003;20450;49.074;9.158;2023-01-16T13:57:30;0.00;0.00;0.00
34176;PMS7003;20450;49.074;9.158;2023-01-16T13:59:57;0.00;0.00;0.00
34176;PMS7003;20450;49.074;9.158;2023-01-16T14:02:39;0.00;0.00;0.00
34176;PMS7003;20450;49.074;9.158;2023-01-16T14:05:18;0.00;0.00;0.00
34176;PMS7003;20450;49.074;9.158;2023-01-16T14:08:16;0.00;0.00;0.00
34176;PMS7003;20450;49.074;9.158;2023-01-16T14:11:03;0.00;0.00;0.00
34176;PMS7003;20450;49.074;9.158;2023-01-16T14:16:55;0.00;0.00;0.00
34176;PMS7003;20450;49.074;9.158;2023-01-16T14:19:29;0.25;0.25;0.25
34176;PMS7003;20450;49.074;9.158;2023-01-16T14:22:04;2.25;2.25;2.25
34176;PMS7003;20450;49.074;9.158;2023-01-16T14:24:37;1.50;1.50;1.50
34176;PMS7003;20450;49.074;9.158;2023-01-16T14:27:09;8.50;8.50;8.50
34176;PMS7003;20450;49.074;9.158;2023-01-16T14:29:45;4.00;3.75;3.75
34176;PMS7003;20450;49.074;9.158;2023-01-16T14:32:17;1.50;1.50;1.50
34176;PMS7003;20450;49.074;9.158;2023-01-16T14:34:49;1.25;1.25;1.25
34176;PMS7003;20450;49.074;9.158;2023-01-16T14:37:25;6.25;6.25;6.25
34176;PMS7003;20450;49.074;9.158;2023-01-16T14:39:57;7.25;5.75;5.50
34176;PMS7003;20450;49.074;9.158;2023-01-16T14:42:44;4.50;4.50;4.50
34176;PMS7003;20450;49.074;9.158;2023-01-16T14:45:20;6.50;6.50;6.50
34176;PMS7003;20450;49.074;9.158;2023-01-16T14:47:55;5.75;5.75;5.75
34176;PMS7003;20450;49.074;9.158;2023-01-16T14:50:42;8.25;8.25;8.25
34176;PMS7003;20450;49.074;9.158;2023-01-16T14:53:19;0.50;0.50;0.50
34176;PMS7003;20450;49.074;9.158;2023-01-16T14:55:49;0.00;0.00;0.00
34176;PMS7003;20450;49.074;9.158;2023-01-16T14:58:26;0.00;0.00;0.00
34176;PMS7003;20450;49.074;9.158;2023-01-16T15:01:03;0.00;0.00;0.00
34176;PMS7003;20450;49.074;9.158;2023-01-16T15:03:40;0.00;0.00;0.00
34176;PMS7003;20450;49.074;9.158;2023-01-16T15:06:09;0.00;0.00;0.00
34176;PMS7003;20450;49.074;9.158;2023-01-16T15:08:40;0.00;0.00;0.00
34176;PMS7003;20450;49.074;9.158;2023-01-16T15:11:10;0.00;0.00;0.00
34176;PMS7003;20450;49.074;9.158;2023-01-16T15:14:02;0.00;0.00;0.00
34176;PMS7003;20450;49.074;9.158;2023-01-16T15:16:36;0.25;0.25;0.25
34176;PMS7003;20450;49.074;9.158;2023-01-16T15:19:13;1.00;1.00;1.00
34176;PMS7003;20450;49.074;9.158;2023-01-16T15:21:45;0.00;0.00;0.00
34176;PMS7003;20450;49.074;9.158;2023-01-16T15:24:15;3.00;3.00;3.00